Time;durP1;ratioP1;P1;durP2;ratioP2;P2;SDS_P1;SDS_P2;PMS_P1;PMS_P2;Temp;Humidity;BMP_temperature;BMP_pressure;BME280_temperature;BME280_humidity;BME280_pressure;Samples;Min_cycle;Max_cycle;Signal;HPM_P1;HPM_P2
2022/03/08 00:01:00;;;;;;;6.88;1.70;;;;;;;;;;5063745;28;20025;-80
2022/03/08 00:03:25;;;;;;;3.05;1.60;;;;;;;;;;5045431;28;20035;-78
2022/03/08 00:05:50;;;;;;;2.88;1.65;;;;;;;;;;5063668;28;20237;-79
2022/03/08 00:08:16;;;;;;;2.63;1.40;;;;;;;;;;5045497;28;20471;-78
2022/03/08 00:10:41;;;;;;;5.78;1.70;;;;;;;;;;5045286;28;20024;-78
2022/03/08 00:13:07;;;;;;;3.03;1.48;;;;;;;;;;5045097;28;20028;-79
2022/03/08 00:15:32;;;;;;;3.60;1.50;;;;;;;;;;5042451;28;20066;-79
2022/03/08 00:17:58;;;;;;;3.13;1.75;;;;;;;;;;5062585;28;20475;-80
2022/03/08 00:20:24;;;;;;;4.32;1.77;;;;;;;;;;5063261;28;20044;-80
2022/03/08 00:22:50;;;;;;;4.43;1.95;;;;;;;;;;5045651;28;20037;-79
2022/03/08 00:25:16;;;;;;;2.53;1.42;;;;;;;;;;5063363;28;20033;-80
2022/03/08 00:27:45;;;;;;;3.17;1.85;;;;;;;;;;5062889;28;20051;-79
2022/03/08 00:30:22;;;;;;;3.20;1.63;;;;;;;;;;5062762;28;20434;-79
2022/03/08 00:32:48;;;;;;;7.47;2.33;;;;;;;;;;5062411;28;20021;-78
2022/03/08 00:35:14;;;;;;;4.00;1.90;;;;;;;;;;5062654;28;20039;-78
2022/03/08 00:37:40;;;;;;;6.13;2.08;;;;;;;;;;5044364;28;20090;-79
2022/03/08 00:40:07;;;;;;;5.90;2.00;;;;;;;;;;5062978;28;20427;-78
2022/03/08 00:42:32;;;;;;;10.63;2.50;;;;;;;;;;5062445;28;20025;-78
2022/03/08 00:44:58;;;;;;;7.30;2.00;;;;;;;;;;5062412;28;20054;-77
2022/03/08 00:47:24;;;;;;;3.72;1.80;;;;;;;;;;5044599;28;20078;-78
2022/03/08 00:49:49;;;;;;;3.88;1.90;;;;;;;;;;5062577;28;20040;-78
2022/03/08 00:52:15;;;;;;;2.78;1.67;;;;;;;;;;5062554;28;20059;-80
2022/03/08 00:54:41;;;;;;;6.18;2.10;;;;;;;;;;5062724;28;20128;-79
2022/03/08 00:57:06;;;;;;;6.70;2.05;;;;;;;;;;5044500;28;20071;-79
2022/03/08 00:59:32;;;;;;;7.82;2.13;;;;;;;;;;5044672;28;20033;-79
2022/03/08 01:01:57;;;;;;;4.70;1.63;;;;;;;;;;5062262;28;20052;-79
2022/03/08 01:04:23;;;;;;;9.82;2.13;;;;;;;;;;5043937;28;20036;-77
2022/03/08 01:06:48;;;;;;;3.30;1.77;;;;;;;;;;5062225;28;20023;-77
2022/03/08 01:09:14;;;;;;;3.08;1.70;;;;;;;;;;5044323;28;20036;-78
2022/03/08 01:11:39;;;;;;;4.32;1.80;;;;;;;;;;5062468;28;20036;-78
2022/03/08 01:14:07;;;;;;;4.38;1.48;;;;;;;;;;5061918;28;20482;-79
2022/03/08 01:16:36;;;;;;;4.60;2.33;;;;;;;;;;5062194;28;20041;-78
2022/03/08 01:19:04;;;;;;;5.55;2.03;;;;;;;;;;5043829;28;20051;-79
2022/03/08 01:21:30;;;;;;;4.00;1.63;;;;;;;;;;5062699;28;20025;-79
2022/03/08 01:23:55;;;;;;;3.67;1.73;;;;;;;;;;5062138;28;20092;-79
2022/03/08 01:26:21;;;;;;;3.88;1.90;;;;;;;;;;5044335;28;20059;-80
2022/03/08 01:28:46;;;;;;;2.97;1.48;;;;;;;;;;5061938;28;20025;-79
2022/03/08 01:31:12;;;;;;;3.00;1.70;;;;;;;;;;5062312;28;20080;-78
2022/03/08 01:33:38;;;;;;;6.43;1.85;;;;;;;;;;5062211;28;20017;-79
2022/03/08 01:36:04;;;;;;;3.05;1.70;;;;;;;;;;5043725;28;20032;-79
2022/03/08 01:38:29;;;;;;;6.43;1.60;;;;;;;;;;5061721;28;20029;-79
2022/03/08 01:40:55;;;;;;;4.88;1.63;;;;;;;;;;5062590;28;20036;-79
2022/03/08 01:43:20;;;;;;;4.55;1.85;;;;;;;;;;5061711;28;20039;-78
2022/03/08 01:45:46;;;;;;;5.30;1.58;;;;;;;;;;5062286;28;20502;-79
2022/03/08 01:48:12;;;;;;;3.40;1.70;;;;;;;;;;5062071;28;20040;-80
2022/03/08 01:50:37;;;;;;;3.30;1.60;;;;;;;;;;5062320;28;20458;-79
2022/03/08 01:53:06;;;;;;;4.53;1.55;;;;;;;;;;5061397;28;20458;-78
2022/03/08 01:55:32;;;;;;;3.20;1.67;;;;;;;;;;5062118;28;20190;-79
2022/03/08 01:57:57;;;;;;;5.72;1.85;;;;;;;;;;5063771;28;20064;-78
2022/03/08 02:00:28;;;;;;;1.95;1.13;;;;;;;;;;5047541;28;20024;-78
2022/03/08 02:02:57;;;;;;;2.65;1.20;;;;;;;;;;5065820;28;20036;-78
2022/03/08 02:05:24;;;;;;;1.90;1.08;;;;;;;;;;5065449;28;20498;-77
2022/03/08 02:07:50;;;;;;;4.03;1.30;;;;;;;;;;5065674;28;20037;-78
2022/03/08 02:10:15;;;;;;;4.13;1.75;;;;;;;;;;5065620;28;20043;-79
2022/03/08 02:12:41;;;;;;;2.60;1.42;;;;;;;;;;5065012;28;20033;-79
2022/03/08 02:15:21;;;;;;;2.97;1.70;;;;;;;;;;5065060;28;20048;-79
2022/03/08 02:17:47;;;;;;;3.70;1.48;;;;;;;;;;5065099;28;20032;-78
2022/03/08 02:20:13;;;;;;;5.28;1.67;;;;;;;;;;5065922;28;20025;-79
2022/03/08 02:22:44;;;;;;;9.73;1.55;;;;;;;;;;5064962;28;20032;-79
2022/03/08 02:25:12;;;;;;;4.30;1.60;;;;;;;;;;5047334;28;20092;-78
2022/03/08 02:27:47;;;;;;;3.20;1.67;;;;;;;;;;5046472;28;20033;-79
2022/03/08 02:30:14;;;;;;;4.38;1.58;;;;;;;;;;5065334;28;20375;-79
2022/03/08 02:32:42;;;;;;;8.23;1.63;;;;;;;;;;5064656;28;20092;-79
2022/03/08 02:35:12;;;;;;;7.63;2.08;;;;;;;;;;5064602;28;20017;-78
2022/03/08 02:37:39;;;;;;;3.08;1.42;;;;;;;;;;5064786;28;20079;-78
2022/03/08 02:40:08;;;;;;;5.60;1.85;;;;;;;;;;5064813;28;20025;-79
2022/03/08 02:42:34;;;;;;;4.95;1.50;;;;;;;;;;5064817;28;20033;-78
2022/03/08 02:44:59;;;;;;;2.08;1.15;;;;;;;;;;5047048;28;20119;-78
2022/03/08 02:47:25;;;;;;;4.03;1.00;;;;;;;;;;5046950;28;20056;-79
2022/03/08 02:49:50;;;;;;;2.33;1.23;;;;;;;;;;5046843;28;20196;-78
2022/03/08 02:52:15;;;;;;;5.43;1.48;;;;;;;;;;5046739;28;20040;-79
2022/03/08 02:54:41;;;;;;;2.05;1.17;;;;;;;;;;5063790;28;20021;-78
2022/03/08 02:57:06;;;;;;;3.13;1.33;;;;;;;;;;5064740;28;20025;-78
2022/03/08 02:59:32;;;;;;;2.78;1.33;;;;;;;;;;5064674;28;20056;-78
2022/03/08 03:01:57;;;;;;;2.72;1.33;;;;;;;;;;5046829;28;20035;-79
2022/03/08 03:04:22;;;;;;;2.45;1.38;;;;;;;;;;5046541;28;20025;-79
2022/03/08 03:06:48;;;;;;;3.95;1.45;;;;;;;;;;5064194;28;20067;-79
2022/03/08 03:09:14;;;;;;;5.30;1.80;;;;;;;;;;5064508;28;20021;-78
2022/03/08 03:11:39;;;;;;;5.40;1.33;;;;;;;;;;5064498;28;20254;-76
2022/03/08 03:14:05;;;;;;;2.33;1.20;;;;;;;;;;5046532;28;20029;-78
2022/03/08 03:16:30;;;;;;;2.67;1.50;;;;;;;;;;5046265;28;20053;-78
2022/03/08 03:18:56;;;;;;;2.75;1.38;;;;;;;;;;5063800;28;20044;-78
2022/03/08 03:21:22;;;;;;;2.22;1.45;;;;;;;;;;5064387;28;20025;-78
2022/03/08 03:23:47;;;;;;;5.20;1.63;;;;;;;;;;5064080;28;20060;-78
2022/03/08 03:26:13;;;;;;;4.95;1.50;;;;;;;;;;5064627;28;20097;-78
2022/03/08 03:28:38;;;;;;;3.85;1.45;;;;;;;;;;5045888;28;20050;-78
2022/03/08 03:31:03;;;;;;;4.68;1.63;;;;;;;;;;5064239;28;20021;-78
2022/03/08 03:33:29;;;;;;;4.03;1.58;;;;;;;;;;5045988;28;20025;-79
2022/03/08 03:35:54;;;;;;;4.22;1.52;;;;;;;;;;5063801;28;20470;-78
2022/03/08 03:38:20;;;;;;;2.35;1.60;;;;;;;;;;5063805;28;20032;-78
2022/03/08 03:40:45;;;;;;;5.35;1.90;;;;;;;;;;5063879;28;20027;-79
2022/03/08 03:43:11;;;;;;;6.82;1.75;;;;;;;;;;5062980;28;20029;-78
2022/03/08 03:45:37;;;;;;;4.60;1.52;;;;;;;;;;5063872;28;20025;-79
2022/03/08 03:48:03;;;;;;;2.85;1.60;;;;;;;;;;5063629;28;20039;-79
2022/03/08 03:50:28;;;;;;;2.55;1.70;;;;;;;;;;5063905;28;20064;-78
2022/03/08 03:52:54;;;;;;;4.32;1.75;;;;;;;;;;5063297;28;20063;-78
2022/03/08 03:55:20;;;;;;;3.17;1.55;;;;;;;;;;5063416;28;20029;-77
2022/03/08 03:57:46;;;;;;;5.53;2.00;;;;;;;;;;5062974;28;20083;-78
2022/03/08 04:00:16;;;;;;;4.68;2.17;;;;;;;;;;5063403;28;20029;-78
2022/03/08 04:02:43;;;;;;;2.33;1.48;;;;;;;;;;5063351;28;20080;-77
2022/03/08 04:05:11;;;;;;;3.45;1.58;;;;;;;;;;5063103;28;20056;-77
2022/03/08 04:07:37;;;;;;;4.32;1.98;;;;;;;;;;5063281;28;20074;-78
2022/03/08 04:10:07;;;;;;;4.22;2.60;;;;;;;;;;5045038;28;20025;-78
2022/03/08 04:12:33;;;;;;;4.20;1.48;;;;;;;;;;5045345;28;20037;-78
2022/03/08 04:14:58;;;;;;;2.63;1.48;;;;;;;;;;5062528;28;20133;-77
2022/03/08 04:17:23;;;;;;;4.40;1.38;;;;;;;;;;5063646;28;20031;-78
2022/03/08 04:19:49;;;;;;;3.83;1.55;;;;;;;;;;5044288;28;20036;-78
2022/03/08 04:22:14;;;;;;;5.35;1.80;;;;;;;;;;5063142;28;20078;-78
2022/03/08 04:24:44;;;;;;;4.60;1.50;;;;;;;;;;5062652;28;20033;-78
2022/03/08 04:27:10;;;;;;;5.00;1.60;;;;;;;;;;5063431;28;20044;-78
2022/03/08 04:29:35;;;;;;;5.28;1.60;;;;;;;;;;5044895;28;20031;-78
2022/03/08 04:32:03;;;;;;;5.15;1.50;;;;;;;;;;5063019;28;20031;-76
2022/03/08 04:34:28;;;;;;;7.57;2.20;;;;;;;;;;5062283;28;20056;-78
2022/03/08 04:36:54;;;;;;;2.67;1.30;;;;;;;;;;5044977;28;20533;-77
2022/03/08 04:39:19;;;;;;;3.55;1.48;;;;;;;;;;5044436;28;20396;-78
2022/03/08 04:41:45;;;;;;;3.85;1.60;;;;;;;;;;5062730;28;20025;-78
2022/03/08 04:44:10;;;;;;;3.28;1.35;;;;;;;;;;5062473;28;20028;-78
2022/03/08 04:46:35;;;;;;;3.67;1.42;;;;;;;;;;5062530;28;20132;-77
2022/03/08 04:49:01;;;;;;;2.45;1.20;;;;;;;;;;5062390;28;20068;-78
2022/03/08 04:51:26;;;;;;;5.80;1.55;;;;;;;;;;5062392;28;20075;-78
2022/03/08 04:53:52;;;;;;;3.55;1.67;;;;;;;;;;5044337;28;20066;-78
2022/03/08 04:56:18;;;;;;;6.78;1.63;;;;;;;;;;5062782;28;20468;-78
2022/03/08 04:58:44;;;;;;;3.20;1.50;;;;;;;;;;5062558;28;20032;-78
2022/03/08 05:01:12;;;;;;;2.85;1.75;;;;;;;;;;5062816;28;20123;-78
2022/03/08 05:03:38;;;;;;;3.67;1.58;;;;;;;;;;5043782;28;20029;-79
2022/03/08 05:06:05;;;;;;;4.18;1.70;;;;;;;;;;5062709;28;20088;-79
2022/03/08 05:08:30;;;;;;;3.97;1.38;;;;;;;;;;5062261;28;20092;-79
2022/03/08 05:10:56;;;;;;;5.18;1.73;;;;;;;;;;5044037;28;20075;-78
2022/03/08 05:13:22;;;;;;;3.05;1.20;;;;;;;;;;5044118;28;20021;-77
2022/03/08 05:15:48;;;;;;;4.45;1.50;;;;;;;;;;5062359;28;20037;-79
2022/03/08 05:18:18;;;;;;;4.22;1.50;;;;;;;;;;5062210;28;20450;-79
2022/03/08 05:20:43;;;;;;;3.63;1.35;;;;;;;;;;5062603;28;20059;-78
2022/03/08 05:23:09;;;;;;;2.67;1.40;;;;;;;;;;5062510;28;20029;-79
2022/03/08 05:25:35;;;;;;;2.85;1.10;;;;;;;;;;5062681;28;20025;-78
2022/03/08 05:28:00;;;;;;;2.17;1.30;;;;;;;;;;5044119;28;20033;-77
2022/03/08 05:30:25;;;;;;;3.22;1.40;;;;;;;;;;5044309;28;20032;-78
2022/03/08 05:32:52;;;;;;;3.92;1.23;;;;;;;;;;5045559;28;20036;-79
2022/03/08 05:35:18;;;;;;;3.20;1.48;;;;;;;;;;5066567;28;20029;-78
2022/03/08 05:37:43;;;;;;;2.97;1.48;;;;;;;;;;5048395;28;20533;-79
2022/03/08 05:40:11;;;;;;;3.60;1.50;;;;;;;;;;5066262;28;20033;-78
2022/03/08 05:42:40;;;;;;;2.90;1.25;;;;;;;;;;5065956;28;20507;-78
2022/03/08 05:45:12;;;;;;;5.65;1.67;;;;;;;;;;5066204;28;20083;-78
2022/03/08 05:47:39;;;;;;;2.20;1.23;;;;;;;;;;5065739;28;20029;-79
2022/03/08 05:50:06;;;;;;;2.55;1.30;;;;;;;;;;5065867;28;20044;-78
2022/03/08 05:52:32;;;;;;;3.08;0.82;;;;;;;;;;5048085;28;20086;-77
2022/03/08 05:54:58;;;;;;;4.15;1.05;;;;;;;;;;5065770;28;20029;-78
2022/03/08 05:57:23;;;;;;;3.28;1.30;;;;;;;;;;5047933;28;20025;-79
2022/03/08 05:59:49;;;;;;;2.22;1.10;;;;;;;;;;5047527;28;20029;-79
2022/03/08 06:02:16;;;;;;;3.45;1.10;;;;;;;;;;5066349;28;20017;-78
2022/03/08 06:04:42;;;;;;;4.32;1.08;;;;;;;;;;5065492;28;20033;-79
2022/03/08 06:07:07;;;;;;;2.22;1.27;;;;;;;;;;5065927;28;20025;-79
2022/03/08 06:09:33;;;;;;;3.60;1.45;;;;;;;;;;5065587;28;20032;-79
2022/03/08 06:11:58;;;;;;;4.35;1.27;;;;;;;;;;5065745;28;20021;-74
2022/03/08 06:14:24;;;;;;;2.80;1.67;;;;;;;;;;5046978;28;20092;-78
2022/03/08 06:16:49;;;;;;;3.60;1.50;;;;;;;;;;5065731;28;20435;-78
2022/03/08 06:19:14;;;;;;;2.47;1.40;;;;;;;;;;5065456;28;20033;-78
2022/03/08 06:21:40;;;;;;;5.65;1.40;;;;;;;;;;5065189;28;20033;-79
2022/03/08 06:24:05;;;;;;;6.88;1.85;;;;;;;;;;5047557;28;20078;-79
2022/03/08 06:26:33;;;;;;;2.53;1.35;;;;;;;;;;5065334;28;20032;-78
2022/03/08 06:29:00;;;;;;;4.70;1.60;;;;;;;;;;5065556;28;20033;-78
2022/03/08 06:31:25;;;;;;;2.25;1.40;;;;;;;;;;5047250;28;20529;-79
2022/03/08 06:33:50;;;;;;;6.82;1.70;;;;;;;;;;5064983;28;20056;-80
2022/03/08 06:36:16;;;;;;;3.20;1.38;;;;;;;;;;5064962;28;20479;-79
2022/03/08 06:38:41;;;;;;;5.30;1.58;;;;;;;;;;5065320;28;20036;-78
2022/03/08 06:41:07;;;;;;;4.88;1.73;;;;;;;;;;5047405;28;20039;-78
2022/03/08 06:43:32;;;;;;;4.57;1.65;;;;;;;;;;5064659;28;20021;-77
2022/03/08 06:45:57;;;;;;;4.95;1.60;;;;;;;;;;5064878;28;20084;-79
2022/03/08 06:48:23;;;;;;;4.53;1.45;;;;;;;;;;5046924;28;20044;-79
2022/03/08 06:50:48;;;;;;;3.40;1.40;;;;;;;;;;5065227;28;20025;-78
2022/03/08 06:53:14;;;;;;;3.72;1.45;;;;;;;;;;5065428;28;20025;-79
2022/03/08 06:55:39;;;;;;;4.15;1.80;;;;;;;;;;5046712;28;20055;-78
2022/03/08 06:58:05;;;;;;;2.90;1.70;;;;;;;;;;5046041;28;20023;-80
2022/03/08 07:00:31;;;;;;;3.85;1.77;;;;;;;;;;5064365;28;20415;-80
2022/03/08 07:02:56;;;;;;;2.78;1.92;;;;;;;;;;5064303;28;20025;-77
2022/03/08 07:05:22;;;;;;;4.82;2.10;;;;;;;;;;5064598;28;20025;-79
2022/03/08 07:07:47;;;;;;;8.93;1.85;;;;;;;;;;5064410;28;20024;-75
2022/03/08 07:10:13;;;;;;;4.28;1.60;;;;;;;;;;5064282;28;20051;-77
2022/03/08 07:12:38;;;;;;;5.53;1.60;;;;;;;;;;5063297;28;20044;-78
2022/03/08 07:15:04;;;;;;;3.45;1.45;;;;;;;;;;5064075;28;20059;-77
2022/03/08 07:17:30;;;;;;;5.45;1.50;;;;;;;;;;5045865;28;20037;-77
2022/03/08 07:19:55;;;;;;;4.38;1.50;;;;;;;;;;5064585;28;20021;-75
2022/03/08 07:22:21;;;;;;;2.70;1.25;;;;;;;;;;5064778;28;20029;-76
2022/03/08 07:24:46;;;;;;;5.32;1.20;;;;;;;;;;5064442;28;20036;-76
2022/03/08 07:27:12;;;;;;;2.03;1.20;;;;;;;;;;5046658;28;20173;-77
2022/03/08 07:29:37;;;;;;;5.07;1.48;;;;;;;;;;5064434;28;20025;-77
2022/03/08 07:32:03;;;;;;;2.20;1.25;;;;;;;;;;5064615;28;20031;-76
2022/03/08 07:34:28;;;;;;;4.35;1.50;;;;;;;;;;5046315;28;20036;-75
2022/03/08 07:36:54;;;;;;;6.97;1.63;;;;;;;;;;5064395;28;20039;-77
2022/03/08 07:39:19;;;;;;;3.30;1.60;;;;;;;;;;5064111;28;20043;-77
2022/03/08 07:41:45;;;;;;;1.98;1.20;;;;;;;;;;5064497;28;20028;-77
2022/03/08 07:44:10;;;;;;;4.00;2.00;;;;;;;;;;5064082;28;20037;-77
2022/03/08 07:46:36;;;;;;;5.03;1.42;;;;;;;;;;5064333;28;20029;-76
2022/03/08 07:49:01;;;;;;;5.10;1.65;;;;;;;;;;5064122;28;20040;-77
2022/03/08 07:51:27;;;;;;;4.45;1.50;;;;;;;;;;5046007;28;20033;-77
2022/03/08 07:53:52;;;;;;;2.80;1.13;;;;;;;;;;5064022;28;20040;-77
2022/03/08 07:56:18;;;;;;;3.17;1.10;;;;;;;;;;5063112;28;20033;-76
2022/03/08 07:58:43;;;;;;;4.72;1.20;;;;;;;;;;5063594;28;20044;-77
2022/03/08 08:01:08;;;;;;;1.52;1.02;;;;;;;;;;5063897;28;20029;-77
2022/03/08 08:03:34;;;;;;;3.65;1.17;;;;;;;;;;5063743;28;20033;-76
2022/03/08 08:06:02;;;;;;;2.42;1.05;;;;;;;;;;5063625;28;20059;-77
2022/03/08 08:08:27;;;;;;;1.88;1.10;;;;;;;;;;5063520;28;20045;-78
2022/03/08 08:10:52;;;;;;;2.15;1.10;;;;;;;;;;5063712;28;20113;-79
2022/03/08 08:13:18;;;;;;;2.85;1.38;;;;;;;;;;5063285;28;20115;-78
2022/03/08 08:15:43;;;;;;;3.60;1.30;;;;;;;;;;5063462;28;20084;-77
2022/03/08 08:18:08;;;;;;;3.28;1.10;;;;;;;;;;5063447;28;20086;-78
2022/03/08 08:20:34;;;;;;;2.70;1.08;;;;;;;;;;5063529;28;20507;-78
2022/03/08 08:22:59;;;;;;;2.83;1.00;;;;;;;;;;5063556;28;20041;-77
2022/03/08 08:25:25;;;;;;;1.80;0.80;;;;;;;;;;5063298;28;20035;-77
2022/03/08 08:27:50;;;;;;;2.75;1.10;;;;;;;;;;5063373;28;20036;-76
2022/03/08 08:30:15;;;;;;;2.05;0.82;;;;;;;;;;5063231;28;20047;-78
2022/03/08 08:32:41;;;;;;;2.83;1.20;;;;;;;;;;5063016;28;20048;-78
2022/03/08 08:35:07;;;;;;;2.22;0.98;;;;;;;;;;5062597;28;20060;-77
2022/03/08 08:37:33;;;;;;;3.83;0.90;;;;;;;;;;5063281;28;20059;-79
2022/03/08 08:39:58;;;;;;;2.90;1.00;;;;;;;;;;5063136;28;20040;-77
2022/03/08 08:42:24;;;;;;;2.85;0.70;;;;;;;;;;5045315;28;20029;-80
2022/03/08 08:44:49;;;;;;;3.10;1.17;;;;;;;;;;5062945;28;20733;-78
2022/03/08 08:47:15;;;;;;;2.08;1.10;;;;;;;;;;5062776;28;20077;-79
2022/03/08 08:49:41;;;;;;;2.13;0.80;;;;;;;;;;5063092;28;20025;-77
2022/03/08 08:52:06;;;;;;;1.30;0.75;;;;;;;;;;5063009;28;20450;-78
2022/03/08 08:54:32;;;;;;;1.58;0.88;;;;;;;;;;5062859;28;20088;-77
2022/03/08 08:56:57;;;;;;;3.42;1.13;;;;;;;;;;5063242;28;20033;-77
2022/03/08 08:59:23;;;;;;;1.75;0.93;;;;;;;;;;5044807;28;20033;-77
2022/03/08 09:01:48;;;;;;;3.28;1.17;;;;;;;;;;5062649;28;20037;-79
2022/03/08 09:04:14;;;;;;;2.00;0.90;;;;;;;;;;5062598;28;20025;-78
2022/03/08 09:06:40;;;;;;;3.42;0.75;;;;;;;;;;5062869;28;20077;-78
2022/03/08 09:09:05;;;;;;;2.53;0.82;;;;;;;;;;5062777;28;20053;-79
2022/03/08 09:11:31;;;;;;;1.95;0.90;;;;;;;;;;5044758;28;20033;-79
2022/03/08 09:13:56;;;;;;;2.45;1.00;;;;;;;;;;5062633;28;20122;-78
2022/03/08 09:16:22;;;;;;;1.55;0.93;;;;;;;;;;5043932;28;20060;-79
2022/03/08 09:18:48;;;;;;;1.42;0.80;;;;;;;;;;5044344;28;20025;-80
2022/03/08 09:21:13;;;;;;;1.77;1.05;;;;;;;;;;5062267;28;20324;-78
2022/03/08 09:23:40;;;;;;;1.75;0.82;;;;;;;;;;5044175;28;20036;-79
2022/03/08 09:26:06;;;;;;;1.45;0.80;;;;;;;;;;5044303;28;20066;-78
2022/03/08 09:28:31;;;;;;;2.22;0.90;;;;;;;;;;5062060;28;20071;-77
2022/03/08 09:30:59;;;;;;;1.45;0.90;;;;;;;;;;5062424;28;20064;-78
2022/03/08 09:33:24;;;;;;;1.63;0.90;;;;;;;;;;5044598;28;20033;-78
2022/03/08 09:35:49;;;;;;;2.40;1.10;;;;;;;;;;5061909;28;20029;-79
2022/03/08 09:38:15;;;;;;;2.50;1.02;;;;;;;;;;5044017;28;20032;-77
2022/03/08 09:40:41;;;;;;;2.05;1.20;;;;;;;;;;5062519;28;20075;-77
2022/03/08 09:43:06;;;;;;;2.15;1.05;;;;;;;;;;5062414;28;20434;-78
2022/03/08 09:45:32;;;;;;;4.00;1.10;;;;;;;;;;5062241;28;20641;-80
2022/03/08 09:47:58;;;;;;;1.58;0.80;;;;;;;;;;5061688;28;20116;-78
2022/03/08 09:50:24;;;;;;;2.97;1.00;;;;;;;;;;5062373;28;20029;-77
2022/03/08 09:52:55;;;;;;;2.67;0.95;;;;;;;;;;5061605;28;20052;-78
2022/03/08 09:55:22;;;;;;;2.33;0.95;;;;;;;;;;5062700;28;20029;-76
2022/03/08 09:57:49;;;;;;;2.90;1.00;;;;;;;;;;5061859;28;20032;-78
2022/03/08 10:00:14;;;;;;;1.25;0.80;;;;;;;;;;5062507;28;20029;-79
2022/03/08 10:02:59;;;;;;;1.60;0.85;;;;;;;;;;5061834;28;20104;-78
2022/03/08 10:05:26;;;;;;;2.30;0.90;;;;;;;;;;5061679;28;20455;-78
2022/03/08 10:08:10;;;;;;;2.80;1.10;;;;;;;;;;5043601;28;20056;-77
2022/03/08 10:11:00;;;;;;;2.40;1.02;;;;;;;;;;5062126;28;20064;-79
2022/03/08 10:13:35;;;;;;;3.00;1.10;;;;;;;;;;5062267;28;20035;-80
2022/03/08 10:16:25;;;;;;;4.20;0.98;;;;;;;;;;5062043;28;20053;-78
2022/03/08 10:18:56;;;;;;;3.67;1.10;;;;;;;;;;5063250;28;20640;-78
2022/03/08 10:21:25;;;;;;;4.22;1.25;;;;;;;;;;5065817;28;20463;-79
2022/03/08 10:23:50;;;;;;;3.03;0.90;;;;;;;;;;5065398;28;20033;-79
2022/03/08 10:26:16;;;;;;;3.28;1.17;;;;;;;;;;5065647;28;20040;-78
2022/03/08 10:28:52;;;;;;;1.77;0.90;;;;;;;;;;5064079;28;20044;-78
2022/03/08 10:31:18;;;;;;;2.25;0.88;;;;;;;;;;5065435;28;20029;-77
2022/03/08 10:33:45;;;;;;;4.47;1.10;;;;;;;;;;5065271;28;20040;-77
2022/03/08 10:36:15;;;;;;;3.47;1.08;;;;;;;;;;5047446;28;20123;-77
2022/03/08 10:39:21;;;;;;;1.92;0.90;;;;;;;;;;5047359;28;20029;-78
2022/03/08 10:41:52;;;;;;;1.05;0.90;;;;;;;;;;5064757;28;20511;-77
2022/03/08 10:44:33;;;;;;;2.78;1.23;;;;;;;;;;5047239;28;20113;-79
2022/03/08 10:47:01;;;;;;;3.35;1.20;;;;;;;;;;5047273;28;20021;-78
2022/03/08 10:49:28;;;;;;;1.95;1.00;;;;;;;;;;5046989;28;20037;-78
2022/03/08 10:52:05;;;;;;;4.05;1.10;;;;;;;;;;5047156;28;20045;-79
2022/03/08 10:54:31;;;;;;;1.45;0.90;;;;;;;;;;5065217;28;20036;-77
2022/03/08 10:56:57;;;;;;;3.63;1.02;;;;;;;;;;5047027;28;20029;-78
2022/03/08 10:59:23;;;;;;;1.73;0.82;;;;;;;;;;5064964;28;20040;-78
2022/03/08 11:01:48;;;;;;;3.85;1.25;;;;;;;;;;5047155;28;20111;-78
2022/03/08 11:04:20;;;;;;;8.77;1.40;;;;;;;;;;5064635;28;20036;-79
2022/03/08 11:06:50;;;;;;;2.50;0.90;;;;;;;;;;5046637;28;20096;-78
2022/03/08 11:09:16;;;;;;;1.23;0.80;;;;;;;;;;5064741;28;20040;-78
2022/03/08 11:11:42;;;;;;;2.72;1.50;;;;;;;;;;5064780;28;20029;-78
2022/03/08 11:14:08;;;;;;;1.77;0.90;;;;;;;;;;5064314;28;20025;-78
2022/03/08 11:16:33;;;;;;;2.17;1.02;;;;;;;;;;5044902;28;20135;-77
2022/03/08 11:18:59;;;;;;;3.15;1.02;;;;;;;;;;5044618;28;20044;-78
2022/03/08 11:21:26;;;;;;;1.90;1.10;;;;;;;;;;5044318;28;20029;-78
2022/03/08 11:23:52;;;;;;;2.72;0.95;;;;;;;;;;5044283;28;20026;-78
2022/03/08 11:26:19;;;;;;;3.17;0.95;;;;;;;;;;5026596;28;20053;-78
2022/03/08 11:28:46;;;;;;;1.77;0.80;;;;;;;;;;5044404;28;20033;-78
2022/03/08 11:31:16;;;;;;;2.70;1.00;;;;;;;;;;5043452;28;20122;-77
2022/03/08 11:33:50;;;;;;;3.47;1.00;;;;;;;;;;5044040;28;20040;-78
2022/03/08 11:36:21;;;;;;;2.38;1.08;;;;;;;;;;5044483;28;20542;-78
2022/03/08 11:39:25;;;;;;;2.85;1.10;;;;;;;;;;5026211;28;20040;-78
2022/03/08 11:41:55;;;;;;;3.35;0.82;;;;;;;;;;5025587;28;20398;-79
2022/03/08 11:44:25;;;;;;;3.53;1.08;;;;;;;;;;5026222;28;20038;-77
2022/03/08 11:47:03;;;;;;;3.17;1.20;;;;;;;;;;5043940;28;20029;-79
2022/03/08 11:49:55;;;;;;;3.15;1.10;;;;;;;;;;5043712;28;20036;-78
2022/03/08 11:52:31;;;;;;;3.22;0.95;;;;;;;;;;5043953;28;20037;-78
2022/03/08 11:55:06;;;;;;;2.25;1.20;;;;;;;;;;5043601;28;20430;-78
2022/03/08 11:57:43;;;;;;;2.05;0.90;;;;;;;;;;5043980;28;20056;-78
2022/03/08 12:00:22;;;;;;;1.98;0.82;;;;;;;;;;5043793;28;20045;-79
2022/03/08 12:02:52;;;;;;;2.10;0.82;;;;;;;;;;5043887;28;20035;-78
2022/03/08 12:05:39;;;;;;;2.40;0.90;;;;;;;;;;5043565;28;20048;-78
2022/03/08 12:08:32;;;;;;;1.75;0.90;;;;;;;;;;5025633;28;20416;-77
2022/03/08 12:11:27;;;;;;;2.83;1.40;;;;;;;;;;5043504;28;20034;-78
2022/03/08 12:14:08;;;;;;;1.35;0.88;;;;;;;;;;5043552;28;20488;-78
2022/03/08 12:16:34;;;;;;;2.25;0.90;;;;;;;;;;5025579;28;20041;-79
2022/03/08 12:19:01;;;;;;;2.20;1.27;;;;;;;;;;5043220;28;20029;-79
2022/03/08 12:21:29;;;;;;;3.03;1.10;;;;;;;;;;5043384;28;20022;-79
2022/03/08 12:24:02;;;;;;;4.25;1.38;;;;;;;;;;5043291;28;20022;-79
2022/03/08 12:26:47;;;;;;;3.75;1.38;;;;;;;;;;5042621;28;20025;-78
2022/03/08 12:29:17;;;;;;;2.95;1.20;;;;;;;;;;5041108;28;20029;-78
2022/03/08 12:31:57;;;;;;;1.90;0.80;;;;;;;;;;5023955;28;20030;-79
2022/03/08 12:34:47;;;;;;;3.03;1.00;;;;;;;;;;5041980;28;20089;-77
2022/03/08 12:37:16;;;;;;;2.50;1.10;;;;;;;;;;5041891;28;20065;-79
2022/03/08 12:39:52;;;;;;;2.95;1.20;;;;;;;;;;5024933;28;20060;-79
2022/03/08 12:42:26;;;;;;;3.08;1.10;;;;;;;;;;5042390;28;20032;-78
2022/03/08 12:45:05;;;;;;;4.45;1.23;;;;;;;;;;5042465;28;20021;-79
2022/03/08 12:47:40;;;;;;;4.00;1.10;;;;;;;;;;5024825;28;20041;-80
2022/03/08 12:50:22;;;;;;;3.13;0.90;;;;;;;;;;5023955;28;20029;-78
2022/03/08 12:52:50;;;;;;;2.85;1.00;;;;;;;;;;5024544;28;20030;-79
2022/03/08 12:55:19;;;;;;;1.65;0.90;;;;;;;;;;5042656;28;20549;-79
2022/03/08 12:57:51;;;;;;;2.83;1.40;;;;;;;;;;5042485;28;20032;-78
2022/03/08 13:00:39;;;;;;;7.75;1.65;;;;;;;;;;5024868;28;20472;-78
2022/03/08 13:03:10;;;;;;;1.30;0.80;;;;;;;;;;5024803;28;20145;-78
2022/03/08 13:05:39;;;;;;;3.83;1.08;;;;;;;;;;5024891;28;20029;-78
2022/03/08 13:08:05;;;;;;;3.05;1.08;;;;;;;;;;5042707;28;20029;-80
2022/03/08 13:10:31;;;;;;;2.75;1.20;;;;;;;;;;5042806;28;20037;-77
2022/03/08 13:13:04;;;;;;;3.97;1.17;;;;;;;;;;5025042;28;20033;-79
2022/03/08 13:15:31;;;;;;;2.25;1.10;;;;;;;;;;5053901;28;20041;-79
2022/03/08 13:18:01;;;;;;;2.05;1.10;;;;;;;;;;5062483;28;20040;-78
2022/03/08 13:20:48;;;;;;;2.70;1.17;;;;;;;;;;5062533;28;20033;-78
2022/03/08 13:23:21;;;;;;;5.15;1.90;;;;;;;;;;5062543;28;20033;-78
2022/03/08 13:25:48;;;;;;;3.00;1.10;;;;;;;;;;5062748;28;20056;-77
2022/03/08 13:28:21;;;;;;;1.95;1.15;;;;;;;;;;5062560;28;20270;-79
2022/03/08 13:30:55;;;;;;;3.17;1.25;;;;;;;;;;5044817;28;20442;-78
2022/03/08 13:33:34;;;;;;;2.17;1.10;;;;;;;;;;5044508;28;20037;-78
2022/03/08 13:36:04;;;;;;;3.80;0.90;;;;;;;;;;5062734;28;20068;-78
2022/03/08 13:38:34;;;;;;;1.85;1.30;;;;;;;;;;5062453;28;20089;-77
2022/03/08 13:41:12;;;;;;;3.50;1.20;;;;;;;;;;5062526;28;20033;-78
2022/03/08 13:43:40;;;;;;;3.28;1.08;;;;;;;;;;5044353;28;20125;-78
2022/03/08 13:46:09;;;;;;;2.28;0.90;;;;;;;;;;5062483;28;20029;-78
2022/03/08 13:48:47;;;;;;;3.30;1.00;;;;;;;;;;5062250;28;20372;-78
2022/03/08 13:51:13;;;;;;;3.15;1.05;;;;;;;;;;5062442;28;20025;-79
2022/03/08 13:53:38;;;;;;;3.45;1.20;;;;;;;;;;5063498;28;20507;-79
2022/03/08 13:56:05;;;;;;;1.63;1.00;;;;;;;;;;5066215;28;20029;-78
2022/03/08 13:58:42;;;;;;;1.55;0.85;;;;;;;;;;5065396;28;20037;-78
2022/03/08 14:01:13;;;;;;;2.33;1.10;;;;;;;;;;5066471;28;20340;-77
2022/03/08 14:03:40;;;;;;;2.67;1.10;;;;;;;;;;5066003;28;20024;-78
2022/03/08 14:06:10;;;;;;;2.70;0.80;;;;;;;;;;5047897;28;20159;-78
2022/03/08 14:08:42;;;;;;;1.48;0.90;;;;;;;;;;5065778;28;20028;-78
2022/03/08 14:11:10;;;;;;;2.28;1.35;;;;;;;;;;5066065;28;20036;-77
2022/03/08 14:13:46;;;;;;;2.20;1.00;;;;;;;;;;5065750;28;20376;-76
2022/03/08 14:16:11;;;;;;;2.03;0.95;;;;;;;;;;5065478;28;20041;-78
2022/03/08 14:18:57;;;;;;;2.35;1.08;;;;;;;;;;5065838;28;20035;-77
2022/03/08 14:21:26;;;;;;;3.83;1.60;;;;;;;;;;5065327;28;20044;-77
2022/03/08 14:23:52;;;;;;;2.13;1.10;;;;;;;;;;5065602;28;20036;-78
2022/03/08 14:26:21;;;;;;;2.13;1.10;;;;;;;;;;5065384;28;20434;-79
2022/03/08 14:28:56;;;;;;;5.72;1.10;;;;;;;;;;5065414;28;20086;-78
2022/03/08 14:31:31;;;;;;;2.90;1.13;;;;;;;;;;5065792;28;20032;-78
2022/03/08 14:34:17;;;;;;;2.95;1.08;;;;;;;;;;5065040;28;20036;-78
2022/03/08 14:36:45;;;;;;;3.20;0.90;;;;;;;;;;5047820;28;20434;-79
2022/03/08 14:39:40;;;;;;;1.73;0.90;;;;;;;;;;5065071;28;20044;-78
2022/03/08 14:42:08;;;;;;;4.45;1.30;;;;;;;;;;5047362;28;20631;-79
2022/03/08 14:44:39;;;;;;;5.35;1.38;;;;;;;;;;5047064;28;20025;-77
2022/03/08 14:47:07;;;;;;;1.50;0.90;;;;;;;;;;5065194;28;20035;-77
2022/03/08 14:49:33;;;;;;;2.50;1.00;;;;;;;;;;5065065;28;20392;-78